N135R LIT-KBBG

Flight info

Callsign N135R
Flight time N/A
Altitude 085/VFR
Route VFR FF
Aircraft T28A/L-DOV/C

Departure

Time N/A
Airport LIT

Arrival

Time 2026-04-24 00:38
Airport Branson Airport (KBBG)
Time Latitude Longitude Altitude Speed Heading
2026-04-23 23:36 34.72522 -92.22554 262 ft 0 kts 109°
2026-04-23 23:40 34.72532 -92.22543 262 ft 6 kts 313°
2026-04-23 23:40 34.72548 -92.22595 262 ft 8 kts 295°
2026-04-23 23:41 34.72586 -92.22652 262 ft 10 kts 314°
2026-04-23 23:41 34.72636 -92.22723 262 ft 12 kts 316°
2026-04-23 23:41 34.72703 -92.22802 262 ft 15 kts 315°
2026-04-23 23:41 34.72785 -92.22884 261 ft 16 kts 342°
2026-04-23 23:42 34.72873 -92.22817 261 ft 16 kts 43°
2026-04-23 23:42 34.72958 -92.22709 261 ft 19 kts 47°
2026-04-23 23:42 34.73054 -92.22588 262 ft 21 kts 47°
2026-04-23 23:42 34.73160 -92.22452 262 ft 23 kts 46°
2026-04-23 23:43 34.73276 -92.22306 262 ft 25 kts 46°
2026-04-23 23:43 34.73396 -92.22150 262 ft 26 kts 46°
2026-04-23 23:43 34.73522 -92.21990 262 ft 27 kts 47°
2026-04-23 23:43 34.73650 -92.21825 262 ft 26 kts 45°
2026-04-23 23:44 34.73743 -92.21748 262 ft 2 kts 341°
2026-04-23 23:45 34.73769 -92.21773 261 ft 12 kts 307°
2026-04-23 23:45 34.73742 -92.21902 260 ft 23 kts 225°
2026-04-23 23:45 34.73497 -92.22218 284 ft 74 kts 223°
2026-04-23 23:45 34.73097 -92.22727 457 ft 91 kts 225°
2026-04-23 23:46 34.72626 -92.23325 730 ft 100 kts 222°
2026-04-23 23:46 34.72140 -92.23942 1027 ft 101 kts 223°
2026-04-23 23:46 34.71788 -92.24688 1317 ft 108 kts 250°
2026-04-23 23:46 34.71988 -92.25590 1576 ft 125 kts 305°
2026-04-23 23:47 34.72809 -92.26101 1767 ft 140 kts 346°
2026-04-23 23:47 34.73858 -92.26082 1794 ft 159 kts
2026-04-23 23:47 34.74970 -92.25957 1881 ft 162 kts
2026-04-23 23:47 34.76093 -92.25838 1986 ft 162 kts
2026-04-23 23:48 34.77221 -92.25720 2114 ft 163 kts
2026-04-23 23:48 34.78378 -92.25639 2071 ft 168 kts 352°
2026-04-23 23:48 34.79368 -92.26286 2034 ft 161 kts 311°
2026-04-23 23:48 34.80285 -92.27110 2019 ft 169 kts 327°
2026-04-23 23:49 34.82484 -92.28268 1989 ft 173 kts 334°
2026-04-23 23:49 34.83582 -92.28838 1988 ft 170 kts 333°
2026-04-23 23:49 34.84667 -92.29407 1989 ft 171 kts 332°
2026-04-23 23:50 34.85745 -92.29972 1982 ft 170 kts 332°
2026-04-23 23:50 34.86817 -92.30529 1983 ft 166 kts 333°
2026-04-23 23:50 34.87835 -92.31064 2204 ft 155 kts 332°
2026-04-23 23:50 34.88813 -92.31581 2441 ft 151 kts 330°
2026-04-23 23:51 34.89767 -92.32081 2683 ft 147 kts 330°
2026-04-23 23:51 34.90692 -92.32566 2909 ft 142 kts 331°
2026-04-23 23:51 34.91593 -92.33040 3156 ft 142 kts 330°
2026-04-23 23:51 34.92484 -92.33507 3389 ft 137 kts 332°
2026-04-23 23:52 34.93366 -92.33974 3628 ft 139 kts 331°
2026-04-23 23:52 34.94259 -92.34443 3870 ft 139 kts 332°
2026-04-23 23:52 34.95149 -92.34910 4116 ft 140 kts 330°
2026-04-23 23:52 34.96044 -92.35381 4366 ft 140 kts 329°
2026-04-23 23:53 34.96940 -92.35852 4619 ft 141 kts 330°
2026-04-23 23:53 34.97850 -92.36330 4806 ft 144 kts 329°
2026-04-23 23:53 34.98771 -92.36815 5001 ft 145 kts 330°
2026-04-23 23:53 34.99705 -92.37306 5201 ft 147 kts 330°
2026-04-23 23:54 35.00650 -92.37803 5396 ft 148 kts 330°
2026-04-23 23:54 35.01595 -92.38300 5592 ft 148 kts 330°
2026-04-23 23:54 35.02538 -92.38796 5791 ft 148 kts 330°
2026-04-23 23:54 35.03471 -92.39288 5989 ft 148 kts 330°
2026-04-23 23:55 35.04419 -92.39788 6187 ft 149 kts 329°
2026-04-23 23:55 35.05378 -92.40293 6372 ft 150 kts 330°
2026-04-23 23:55 35.06334 -92.40796 6566 ft 150 kts 330°
2026-04-23 23:55 35.07291 -92.41300 6754 ft 149 kts 330°
2026-04-23 23:56 35.08231 -92.41795 6943 ft 146 kts 330°
2026-04-23 23:56 35.09154 -92.42282 7136 ft 144 kts 329°
2026-04-23 23:56 35.10068 -92.42765 7320 ft 142 kts 329°
2026-04-23 23:56 35.10973 -92.43243 7511 ft 141 kts 329°
2026-04-23 23:57 35.11875 -92.43719 7704 ft 141 kts 329°
2026-04-23 23:57 35.12770 -92.44192 7898 ft 140 kts 330°
2026-04-23 23:57 35.13660 -92.44661 8089 ft 138 kts 329°
2026-04-23 23:57 35.14524 -92.45118 8280 ft 136 kts 329°
2026-04-23 23:58 35.15157 -92.45831 8438 ft 120 kts 283°
2026-04-23 23:58 35.15423 -92.46833 8470 ft 130 kts 280°
2026-04-23 23:58 35.15708 -92.47880 8584 ft 130 kts 281°
2026-04-23 23:58 35.16088 -92.48889 8710 ft 133 kts 295°
2026-04-23 23:59 35.16732 -92.49726 8834 ft 140 kts 319°
2026-04-23 23:59 35.17587 -92.50311 8956 ft 141 kts 326°
2026-04-23 23:59 35.18463 -92.50858 9086 ft 141 kts 326°
2026-04-23 23:59 35.19341 -92.51397 9213 ft 141 kts 326°
2026-04-24 00:00 35.20213 -92.51931 9336 ft 140 kts 327°
2026-04-24 00:00 35.21083 -92.52464 9467 ft 139 kts 326°
2026-04-24 00:00 35.21948 -92.52993 9594 ft 139 kts 326°
2026-04-24 00:00 35.22809 -92.53521 9731 ft 138 kts 325°
2026-04-24 00:01 35.23667 -92.54047 9851 ft 138 kts 325°
2026-04-24 00:01 35.24522 -92.54570 9965 ft 137 kts 325°
2026-04-24 00:01 35.25373 -92.55092 10082 ft 136 kts 325°
2026-04-24 00:01 35.26219 -92.55611 10200 ft 136 kts 325°
2026-04-24 00:02 35.27065 -92.56129 10316 ft 136 kts 325°
2026-04-24 00:02 35.27906 -92.56645 10434 ft 135 kts 325°
2026-04-24 00:02 35.28762 -92.57172 10459 ft 141 kts 326°
2026-04-24 00:02 35.29655 -92.57721 10460 ft 145 kts 326°
2026-04-24 00:03 35.30556 -92.58273 10470 ft 148 kts 326°
2026-04-24 00:03 35.31479 -92.58838 10471 ft 148 kts 326°
2026-04-24 00:03 35.32401 -92.59403 10471 ft 148 kts 326°
2026-04-24 00:03 35.33326 -92.59971 10468 ft 149 kts 326°
2026-04-24 00:04 35.34259 -92.60545 10467 ft 150 kts 326°
2026-04-24 00:04 35.35195 -92.61120 10468 ft 151 kts 326°
2026-04-24 00:04 35.36135 -92.61697 10469 ft 151 kts 326°
2026-04-24 00:04 35.37071 -92.62272 10481 ft 150 kts 326°
2026-04-24 00:05 35.38007 -92.62848 10482 ft 151 kts 326°
2026-04-24 00:05 35.38947 -92.63427 10482 ft 151 kts 326°
2026-04-24 00:05 35.39886 -92.64004 10481 ft 151 kts 326°
2026-04-24 00:05 35.40826 -92.64583 10485 ft 152 kts 326°
2026-04-24 00:06 35.41772 -92.65166 10485 ft 152 kts 326°
2026-04-24 00:06 35.42703 -92.65738 10486 ft 152 kts 326°
2026-04-24 00:06 35.43644 -92.66318 10485 ft 151 kts 326°
2026-04-24 00:06 35.44582 -92.66896 10486 ft 151 kts 326°
2026-04-24 00:07 35.45521 -92.67474 10492 ft 151 kts 325°
2026-04-24 00:07 35.46461 -92.68054 10491 ft 151 kts 324°
2026-04-24 00:07 35.47402 -92.68634 10501 ft 152 kts 323°
2026-04-24 00:07 35.48349 -92.69219 10498 ft 152 kts 324°
2026-04-24 00:08 35.49295 -92.69802 10500 ft 152 kts 323°
2026-04-24 00:08 35.50241 -92.70386 10501 ft 153 kts 323°
2026-04-24 00:08 35.51193 -92.70973 10502 ft 153 kts 323°
2026-04-24 00:08 35.52150 -92.71565 10497 ft 154 kts 324°
2026-04-24 00:09 35.53106 -92.72155 10496 ft 153 kts 324°
2026-04-24 00:09 35.54052 -92.72738 10496 ft 151 kts 324°
2026-04-24 00:09 35.54992 -92.73319 10493 ft 151 kts 323°
2026-04-24 00:09 35.55924 -92.73895 10492 ft 150 kts 323°
2026-04-24 00:10 35.56857 -92.74473 10492 ft 151 kts 323°
2026-04-24 00:10 35.57800 -92.75056 10487 ft 152 kts 323°
2026-04-24 00:10 35.58744 -92.75640 10488 ft 153 kts 323°
2026-04-24 00:10 35.59695 -92.76229 10486 ft 153 kts 323°
2026-04-24 00:11 35.60648 -92.76818 10482 ft 153 kts 324°
2026-04-24 00:11 35.61591 -92.77401 10479 ft 151 kts 324°
2026-04-24 00:11 35.62511 -92.77971 10480 ft 150 kts 323°
2026-04-24 00:11 35.63447 -92.78552 10479 ft 151 kts 323°
2026-04-24 00:12 35.64392 -92.79138 10482 ft 153 kts 323°
2026-04-24 00:12 35.65340 -92.79725 10484 ft 153 kts 324°
2026-04-24 00:12 35.66291 -92.80314 10482 ft 153 kts 324°
2026-04-24 00:12 35.67235 -92.80898 10482 ft 151 kts 323°
2026-04-24 00:13 35.68171 -92.81482 10476 ft 152 kts 323°
2026-04-24 00:13 35.69115 -92.82065 10474 ft 151 kts 323°
2026-04-24 00:13 35.70054 -92.82646 10475 ft 151 kts 323°
2026-04-24 00:13 35.70997 -92.83234 10474 ft 152 kts 323°
2026-04-24 00:14 35.71945 -92.83822 10473 ft 152 kts 323°
2026-04-24 00:14 35.72892 -92.84410 10484 ft 153 kts 323°
2026-04-24 00:14 35.73843 -92.85001 10482 ft 153 kts 323°
2026-04-24 00:14 35.74793 -92.85591 10483 ft 153 kts 323°
2026-04-24 00:15 35.75742 -92.86180 10480 ft 152 kts 323°
2026-04-24 00:15 35.76680 -92.86763 10481 ft 151 kts 323°
2026-04-24 00:15 35.77618 -92.87347 10481 ft 152 kts 323°
2026-04-24 00:15 35.78563 -92.87936 10481 ft 152 kts 323°
2026-04-24 00:16 35.79512 -92.88526 10484 ft 154 kts 323°
2026-04-24 00:16 35.80146 -92.88921 10484 ft 153 kts 323°
2026-04-24 00:16 35.81420 -92.89714 10483 ft 153 kts 323°
2026-04-24 00:16 35.82051 -92.90106 10476 ft 153 kts 323°
2026-04-24 00:17 35.83001 -92.90697 10475 ft 153 kts 323°
2026-04-24 00:17 35.83949 -92.91288 10473 ft 152 kts 324°
2026-04-24 00:17 35.85204 -92.92070 10474 ft 152 kts 323°
2026-04-24 00:17 35.86149 -92.92659 10474 ft 152 kts 323°
2026-04-24 00:18 35.86786 -92.93056 10472 ft 152 kts 323°
2026-04-24 00:18 35.87722 -92.93639 10472 ft 150 kts 323°
2026-04-24 00:18 35.88655 -92.94222 10473 ft 151 kts 323°
2026-04-24 00:18 35.89593 -92.94809 10474 ft 152 kts 323°
2026-04-24 00:19 35.90539 -92.95400 10471 ft 153 kts 323°
2026-04-24 00:19 35.91486 -92.95989 10470 ft 152 kts 323°
2026-04-24 00:19 35.92428 -92.96577 10462 ft 151 kts 323°
2026-04-24 00:19 35.93361 -92.97160 10465 ft 150 kts 323°
2026-04-24 00:20 35.94298 -92.97746 10470 ft 151 kts 323°
2026-04-24 00:20 35.95237 -92.98332 10469 ft 151 kts 323°
2026-04-24 00:20 35.96173 -92.98918 10469 ft 151 kts 323°
2026-04-24 00:20 35.97108 -92.99503 10469 ft 150 kts 323°
2026-04-24 00:21 35.98044 -93.00089 10469 ft 151 kts 323°
2026-04-24 00:21 35.98986 -93.00678 10469 ft 152 kts 323°
2026-04-24 00:21 35.99929 -93.01267 10470 ft 151 kts 323°
2026-04-24 00:21 36.00872 -93.01858 10470 ft 152 kts 323°
2026-04-24 00:22 36.01816 -93.02449 10468 ft 153 kts 323°
2026-04-24 00:22 36.02751 -93.03035 10470 ft 153 kts 323°
2026-04-24 00:22 36.03699 -93.03629 10469 ft 152 kts 323°
2026-04-24 00:22 36.04640 -93.04218 10469 ft 151 kts 323°
2026-04-24 00:23 36.05576 -93.04805 10470 ft 151 kts 323°
2026-04-24 00:23 36.06514 -93.05393 10476 ft 152 kts 322°
2026-04-24 00:23 36.07461 -93.05988 10472 ft 153 kts 322°
2026-04-24 00:23 36.08412 -93.06584 10474 ft 153 kts 322°
2026-04-24 00:24 36.09364 -93.07181 10468 ft 153 kts 322°
2026-04-24 00:24 36.10309 -93.07773 10468 ft 151 kts 322°
2026-04-24 00:24 36.11239 -93.08357 10468 ft 149 kts 322°
2026-04-24 00:24 36.12166 -93.08941 10470 ft 150 kts 322°
2026-04-24 00:25 36.13100 -93.09528 10462 ft 151 kts 322°
2026-04-24 00:25 36.14040 -93.10118 10472 ft 152 kts 322°
2026-04-24 00:25 36.14984 -93.10712 10464 ft 152 kts 322°
2026-04-24 00:25 36.15960 -93.11331 10259 ft 160 kts 322°
2026-04-24 00:26 36.16934 -93.11937 10025 ft 152 kts 322°
2026-04-24 00:26 36.17861 -93.12517 9787 ft 147 kts 322°
2026-04-24 00:26 36.18767 -93.13088 9536 ft 145 kts 321°
2026-04-24 00:26 36.19671 -93.13660 9281 ft 147 kts 321°
2026-04-24 00:27 36.20572 -93.14229 9039 ft 148 kts 321°
2026-04-24 00:27 36.21494 -93.14809 8797 ft 149 kts 321°
2026-04-24 00:27 36.22420 -93.15392 8548 ft 150 kts 321°
2026-04-24 00:27 36.23349 -93.15978 8302 ft 150 kts 320°
2026-04-24 00:28 36.24285 -93.16568 8056 ft 151 kts 321°
2026-04-24 00:28 36.25225 -93.17161 7818 ft 152 kts 320°
2026-04-24 00:28 36.26172 -93.17758 7581 ft 153 kts 321°
2026-04-24 00:28 36.27128 -93.18361 7339 ft 154 kts 320°
2026-04-24 00:29 36.28079 -93.18962 7105 ft 156 kts 320°
2026-04-24 00:29 36.29050 -93.19574 6874 ft 157 kts 320°
2026-04-24 00:29 36.30031 -93.20193 6637 ft 159 kts 321°
2026-04-24 00:29 36.31020 -93.20818 6408 ft 161 kts 320°
2026-04-24 00:30 36.32084 -93.21334 6149 ft 174 kts 345°
2026-04-24 00:30 36.33311 -93.21317 5902 ft 177 kts 356°
2026-04-24 00:30 36.34542 -93.21261 5654 ft 177 kts 355°
2026-04-24 00:30 36.35775 -93.21225 5412 ft 177 kts 355°
2026-04-24 00:31 36.37016 -93.21196 5169 ft 180 kts 355°
2026-04-24 00:31 36.38220 -93.21163 4921 ft 165 kts 355°
2026-04-24 00:31 36.39332 -93.21131 4654 ft 155 kts 355°
2026-04-24 00:31 36.40366 -93.21106 4405 ft 145 kts 355°
2026-04-24 00:32 36.41369 -93.21080 4138 ft 143 kts 355°
2026-04-24 00:32 36.42359 -93.21056 3891 ft 142 kts 356°
2026-04-24 00:32 36.43324 -93.21031 3644 ft 139 kts 358°
2026-04-24 00:32 36.44284 -93.21008 3399 ft 137 kts 357°
2026-04-24 00:33 36.45235 -93.20980 3155 ft 135 kts
2026-04-24 00:33 36.46158 -93.20908 2947 ft 131 kts
2026-04-24 00:33 36.47040 -93.20801 2768 ft 125 kts
2026-04-24 00:33 36.47888 -93.20682 2572 ft 123 kts
2026-04-24 00:34 36.48746 -93.20483 2459 ft 120 kts 15°
2026-04-24 00:34 36.49536 -93.20250 2385 ft 114 kts 11°
2026-04-24 00:34 36.50321 -93.20095 2304 ft 115 kts 14°
2026-04-24 00:34 36.51089 -93.20073 2219 ft 111 kts 339°
2026-04-24 00:35 36.51762 -93.20477 2210 ft 103 kts 312°
2026-04-24 00:35 36.52333 -93.21007 2269 ft 103 kts 311°
2026-04-24 00:35 36.52928 -93.21516 2195 ft 107 kts 317°
2026-04-24 00:35 36.53528 -93.21955 2224 ft 91 kts 321°
2026-04-24 00:36 36.54047 -93.22314 2101 ft 91 kts 318°
2026-04-24 00:36 36.54603 -93.22692 2020 ft 87 kts 344°
2026-04-24 00:36 36.55091 -93.22409 1920 ft 78 kts 68°
2026-04-24 00:36 36.55214 -93.21811 1841 ft 61 kts 124°
2026-04-24 00:37 36.54901 -93.21463 1755 ft 59 kts 151°
2026-04-24 00:37 36.54568 -93.21210 1518 ft 56 kts 145°
2026-04-24 00:37 36.54226 -93.20945 1341 ft 61 kts 134°
2026-04-24 00:37 36.53898 -93.20638 1263 ft 52 kts 144°
2026-04-24 00:38 36.53665 -93.20438 1255 ft 30 kts 145°
2026-04-24 00:38 36.53575 -93.20341 1260 ft 11 kts 90°
2026-04-24 00:38 36.53600 -93.20270 1264 ft 0 kts 53°
2026-04-24 00:39 36.53601 -93.20267 1263 ft 3 kts 52°
2026-04-24 00:39 36.53635 -93.20201 1262 ft 15 kts 51°
2026-04-24 00:40 36.53722 -93.20067 1261 ft 23 kts 53°
2026-04-24 00:40 36.53677 -93.19964 1262 ft 13 kts 158°
2026-04-24 00:40 36.53595 -93.19927 1264 ft 11 kts 147°
2026-04-24 00:40 36.53574 -93.19861 1265 ft 8 kts 75°
2026-04-24 00:41 36.53594 -93.19817 1266 ft 5 kts 92°
2026-04-24 00:41 36.53581 -93.19785 1266 ft 3 kts 191°
2026-04-24 00:41 36.53576 -93.19786 1266 ft 0 kts 193°